Time;durP1;ratioP1;P1;durP2;ratioP2;P2;SDS_P1;SDS_P2;PMS_P1;PMS_P2;Temp;Humidity;BMP_temperature;BMP_pressure;BME280_temperature;BME280_humidity;BME280_pressure;Samples;Min_cycle;Max_cycle;Signal;HPM_P1;HPM_P2
2020/12/17 00:01:16;;;;;;;77.13;40.45;;;6.20;99.90;;;;;;4955028;28;20069;-86
2020/12/17 00:03:41;;;;;;;75.97;39.00;;;6.20;99.90;;;;;;4977769;28;20527;-86
2020/12/17 00:06:11;;;;;;;78.05;39.63;;;6.20;99.90;;;;;;4977698;28;20042;-85
2020/12/17 00:08:37;;;;;;;78.47;38.40;;;6.10;99.90;;;;;;4978029;28;20431;-85
2020/12/17 00:11:03;;;;;;;76.38;38.95;;;6.20;99.90;;;;;;4978335;28;20553;-84
2020/12/17 00:13:29;;;;;;;76.05;39.33;;;6.20;99.90;;;;;;4977860;28;20031;-86
2020/12/17 00:15:55;;;;;;;83.22;41.30;;;6.00;99.90;;;;;;4995246;28;20046;-85
2020/12/17 00:18:21;;;;;;;84.18;41.97;;;6.10;99.90;;;;;;4978016;28;20110;-86
2020/12/17 00:20:50;;;;;;;83.93;39.03;;;6.30;99.90;;;;;;4977757;28;20039;-87
2020/12/17 00:23:16;;;;;;;80.00;41.67;;;6.30;99.90;;;;;;4995534;28;20023;-86
2020/12/17 00:25:41;;;;;;;81.13;41.92;;;6.40;99.90;;;;;;4995723;28;20053;-87
2020/12/17 00:28:07;;;;;;;82.22;40.38;;;6.60;99.90;;;;;;4978403;28;20414;-88
2020/12/17 00:30:33;;;;;;;83.97;40.83;;;6.60;99.90;;;;;;4978820;28;20058;-87
2020/12/17 00:32:59;;;;;;;74.55;40.00;;;6.60;99.90;;;;;;4978160;28;20022;-87
2020/12/17 00:35:30;;;;;;;80.47;43.40;;;6.60;99.90;;;;;;4978179;28;20026;-87
2020/12/17 00:37:56;;;;;;;81.70;41.22;;;6.60;99.90;;;;;;4995739;28;20030;-88
2020/12/17 00:40:22;;;;;;;83.05;38.97;;;6.60;99.90;;;;;;4977503;28;20049;-87
2020/12/17 00:42:48;;;;;;;79.95;39.65;;;6.60;99.90;;;;;;4977661;28;20034;-87
2020/12/17 00:45:16;;;;;;;80.53;40.00;;;6.60;99.90;;;;;;4995909;28;20022;-86
2020/12/17 00:47:47;;;;;;;72.70;38.92;;;6.60;99.90;;;;;;4977976;28;20378;-88
2020/12/17 00:50:13;;;;;;;77.05;39.20;;;6.40;99.90;;;;;;4978332;28;20026;-87
2020/12/17 00:52:42;;;;;;;88.07;44.55;;;6.40;99.90;;;;;;4977698;28;20018;-87
2020/12/17 00:56:02;;;;;;;87.55;42.40;;;6.30;99.90;;;;;;4977847;28;20026;-85
2020/12/17 00:58:30;;;;;;;75.32;39.63;;;6.30;99.90;;;;;;4995729;28;20030;-87
2020/12/17 01:00:56;;;;;;;90.10;41.88;;;6.40;99.90;;;;;;4978028;28;20509;-87
2020/12/17 01:03:22;;;;;;;85.78;42.00;;;6.40;99.90;;;;;;4995043;28;20034;-86
2020/12/17 01:05:47;;;;;;;82.53;40.30;;;6.40;99.90;;;;;;4994745;28;20097;-85
2020/12/17 01:08:13;;;;;;;78.85;38.92;;;6.40;99.90;;;;;;4976766;28;20060;-86
2020/12/17 01:10:48;;;;;;;79.07;41.00;;;6.30;99.90;;;;;;4995034;28;20026;-87
2020/12/17 01:13:17;;;;;;;77.57;40.13;;;6.30;99.90;;;;;;4977696;28;20038;-88
2020/12/17 01:15:43;;;;;;;85.30;41.65;;;6.20;99.90;;;;;;4995019;28;20058;-85
2020/12/17 01:18:09;;;;;;;74.07;40.95;;;6.20;99.90;;;;;;4994244;28;20072;-86
2020/12/17 01:20:34;;;;;;;77.75;41.05;;;6.10;99.90;;;;;;4994697;28;20026;-84
2020/12/17 01:23:03;;;;;;;84.80;41.38;;;6.00;99.90;;;;;;4976858;28;20418;-85
2020/12/17 01:25:28;;;;;;;85.22;40.67;;;6.00;99.90;;;;;;4976970;28;20022;-84
2020/12/17 01:27:54;;;;;;;84.25;39.03;;;6.10;99.90;;;;;;4993912;28;20406;-86
2020/12/17 01:30:20;;;;;;;75.78;39.55;;;6.00;99.90;;;;;;4976949;28;20026;-86
2020/12/17 01:32:46;;;;;;;74.15;38.72;;;6.10;99.90;;;;;;4976418;28;20041;-86
2020/12/17 01:35:56;;;;;;;78.10;39.20;;;6.10;99.90;;;;;;4976310;28;20467;-85
2020/12/17 01:37:57;;;;;;;78.20;37.05;;;6.10;99.90;;;;;;4986332;28;20189;-85
2020/12/17 01:40:23;;;;;;;74.32;39.00;;;6.10;99.90;;;;;;4976937;28;20113;-87
2020/12/17 01:42:49;;;;;;;76.95;37.83;;;6.20;99.90;;;;;;4976857;28;20117;-86
2020/12/17 01:45:15;;;;;;;75.60;39.05;;;6.20;99.90;;;;;;4976197;28;20042;-84
2020/12/17 01:47:47;;;;;;;69.43;37.20;;;6.10;99.90;;;;;;4976298;28;20073;-85
2020/12/17 01:50:13;;;;;;;76.80;37.78;;;6.00;99.90;;;;;;4976099;28;20026;-85
2020/12/17 01:56:23;;;;;;;72.40;38.25;;;6.10;99.90;;;;;;4993710;28;20092;-85
2020/12/17 01:58:57;;;;;;;82.22;37.55;;;6.30;99.90;;;;;;4993358;28;20026;-86
2020/12/17 02:01:25;;;;;;;81.65;37.55;;;6.40;99.90;;;;;;4975839;28;20027;-85
2020/12/17 02:03:54;;;;;;;70.22;36.22;;;6.50;99.90;;;;;;4975814;28;20034;-84
2020/12/17 02:06:20;;;;;;;68.47;36.30;;;6.30;99.90;;;;;;4976126;28;20022;-84
2020/12/17 02:08:55;;;;;;;78.18;36.45;;;6.40;99.90;;;;;;4975833;28;20566;-85
2020/12/17 02:11:21;;;;;;;66.13;36.60;;;6.40;99.90;;;;;;4976015;28;20452;-84
2020/12/17 02:14:36;;;;;;;72.00;36.60;;;6.30;99.90;;;;;;4993250;28;20026;-84
2020/12/17 02:17:03;;;;;;;72.53;37.22;;;6.40;99.90;;;;;;5046155;23;20674;-83
2020/12/17 02:19:29;;;;;;;71.68;39.03;;;6.30;99.90;;;;;;4995341;28;20073;-85
2020/12/17 02:21:55;;;;;;;74.63;38.38;;;6.40;99.90;;;;;;5013033;28;20022;-85
2020/12/17 02:24:26;;;;;;;74.35;36.08;;;6.40;99.90;;;;;;4995108;28;20022;-84
2020/12/17 02:26:52;;;;;;;73.28;36.63;;;6.50;99.90;;;;;;4995012;28;20018;-83
2020/12/17 02:29:19;;;;;;;69.70;36.00;;;6.50;99.90;;;;;;4994904;28;20286;-84
2020/12/17 02:31:46;;;;;;;74.95;37.85;;;6.50;99.90;;;;;;4994835;28;20535;-85
2020/12/17 02:34:13;;;;;;;70.65;37.10;;;6.50;99.90;;;;;;4994778;28;20030;-85
2020/12/17 02:36:41;;;;;;;71.47;36.28;;;6.50;99.90;;;;;;4994653;28;20037;-82
2020/12/17 02:39:07;;;;;;;63.40;34.95;;;6.60;99.90;;;;;;5011814;28;20397;-82
2020/12/17 02:41:33;;;;;;;70.57;37.63;;;6.60;99.90;;;;;;5012306;28;20397;-85
2020/12/17 02:44:07;;;;;;;68.30;36.15;;;6.60;99.90;;;;;;4994727;28;20036;-85
2020/12/17 02:46:35;;;;;;;70.03;35.92;;;6.60;99.90;;;;;;4994721;28;20358;-87
2020/12/17 02:49:00;;;;;;;63.17;33.22;;;6.60;99.90;;;;;;4994732;28;20037;-86
2020/12/17 02:51:26;;;;;;;65.43;36.33;;;6.60;99.90;;;;;;4995084;28;20095;-86
2020/12/17 02:53:52;;;;;;;72.25;37.03;;;6.70;99.90;;;;;;4995267;28;20025;-85
2020/12/17 02:56:18;;;;;;;67.88;35.85;;;6.60;99.90;;;;;;4994779;28;20045;-85
2020/12/17 02:58:44;;;;;;;69.53;39.10;;;6.60;99.90;;;;;;5012585;28;20544;-83
2020/12/17 03:01:10;;;;;;;67.72;37.67;;;6.50;99.90;;;;;;4994426;28;20034;-85
2020/12/17 03:03:37;;;;;;;70.15;35.90;;;6.60;99.90;;;;;;5012131;28;20049;-84
2020/12/17 03:06:03;;;;;;;72.75;36.47;;;6.50;99.90;;;;;;4995017;28;20124;-85
2020/12/17 03:08:29;;;;;;;71.70;37.55;;;6.30;99.90;;;;;;5012404;28;20017;-83
2020/12/17 03:10:56;;;;;;;69.60;36.90;;;6.30;99.90;;;;;;4994691;28;20084;-84
2020/12/17 03:13:22;;;;;;;76.25;37.60;;;6.50;99.90;;;;;;5012353;28;20046;-86
2020/12/17 03:15:48;;;;;;;72.15;37.55;;;6.40;99.90;;;;;;4994416;28;20053;-84
2020/12/17 03:18:14;;;;;;;68.50;36.05;;;6.50;99.90;;;;;;4994769;28;20026;-84
2020/12/17 03:20:40;;;;;;;68.53;38.10;;;6.40;99.90;;;;;;4994771;28;20052;-86
2020/12/17 03:23:06;;;;;;;73.80;36.55;;;6.40;99.90;;;;;;5012221;28;20076;-86
2020/12/17 03:25:31;;;;;;;81.07;38.58;;;6.40;99.90;;;;;;5011853;28;20073;-85
2020/12/17 03:27:57;;;;;;;70.93;37.35;;;6.50;99.90;;;;;;5012145;28;20026;-85
2020/12/17 03:30:23;;;;;;;78.18;39.38;;;6.40;99.90;;;;;;4994305;28;20124;-85
2020/12/17 03:32:49;;;;;;;73.13;37.67;;;6.40;99.90;;;;;;4994494;28;20022;-85
2020/12/17 03:35:14;;;;;;;69.57;37.70;;;6.40;99.90;;;;;;4994525;28;20477;-86
2020/12/17 03:37:40;;;;;;;75.43;39.45;;;6.40;99.90;;;;;;4994327;28;20057;-85
2020/12/17 03:40:06;;;;;;;72.88;38.08;;;6.40;99.90;;;;;;4994356;28;20053;-85
2020/12/17 03:42:32;;;;;;;74.03;37.45;;;6.40;99.90;;;;;;5011856;28;20072;-85
2020/12/17 03:45:00;;;;;;;73.85;39.40;;;6.40;99.90;;;;;;5011986;28;20026;-86
2020/12/17 03:47:28;;;;;;;74.35;38.38;;;6.40;99.90;;;;;;5011801;28;20113;-84
2020/12/17 03:49:55;;;;;;;76.05;39.00;;;6.50;99.90;;;;;;4994257;28;20030;-83
2020/12/17 03:52:21;;;;;;;82.30;38.67;;;6.50;99.90;;;;;;4994420;28;20037;-84
2020/12/17 03:54:47;;;;;;;86.95;42.15;;;6.40;99.90;;;;;;5011586;28;20018;-84
2020/12/17 03:57:12;;;;;;;77.25;38.80;;;6.40;99.90;;;;;;4994259;28;20030;-84
2020/12/17 03:59:41;;;;;;;70.75;38.35;;;6.30;99.90;;;;;;4993773;28;20080;-84
2020/12/17 04:02:07;;;;;;;74.82;41.72;;;6.40;99.90;;;;;;4994419;28;20358;-83
2020/12/17 04:04:33;;;;;;;79.63;37.92;;;6.50;99.90;;;;;;4994095;28;20564;-84
2020/12/17 04:06:58;;;;;;;76.60;41.20;;;6.60;99.90;;;;;;4994391;28;20026;-85
2020/12/17 04:09:24;;;;;;;73.43;37.78;;;6.60;99.90;;;;;;4993609;28;20048;-82
2020/12/17 04:11:50;;;;;;;76.03;38.90;;;6.60;99.90;;;;;;4993374;28;20067;-85
2020/12/17 04:14:15;;;;;;;73.07;36.00;;;6.70;99.90;;;;;;4993824;28;20037;-85
2020/12/17 04:16:41;;;;;;;74.97;37.78;;;6.70;99.90;;;;;;5014276;28;20429;-83
2020/12/17 04:19:07;;;;;;;75.55;39.55;;;6.70;99.90;;;;;;5014715;28;20371;-84
2020/12/17 04:21:33;;;;;;;67.90;37.13;;;6.60;99.90;;;;;;4997720;28;20026;-84
2020/12/17 04:23:58;;;;;;;73.32;38.38;;;6.60;99.90;;;;;;4997578;28;20056;-83
2020/12/17 04:26:24;;;;;;;75.05;38.33;;;6.60;99.90;;;;;;4996525;28;20041;-83
2020/12/17 04:28:50;;;;;;;70.80;36.78;;;6.60;99.90;;;;;;4996686;28;20041;-83
2020/12/17 04:31:15;;;;;;;73.18;37.53;;;6.70;99.90;;;;;;5014833;28;20044;-83
2020/12/17 04:33:41;;;;;;;80.30;39.50;;;6.70;99.90;;;;;;5014460;28;20052;-83
2020/12/17 04:36:07;;;;;;;71.45;37.88;;;6.60;99.90;;;;;;5013752;28;20105;-84
2020/12/17 04:38:34;;;;;;;69.82;38.05;;;6.60;99.90;;;;;;4996625;28;20107;-86
2020/12/17 04:41:04;;;;;;;65.03;34.38;;;6.60;99.90;;;;;;4997502;28;20026;-84
2020/12/17 04:43:30;;;;;;;64.20;35.08;;;6.60;99.90;;;;;;4996995;28;20068;-84
2020/12/17 04:45:57;;;;;;;68.70;35.97;;;6.60;99.90;;;;;;4996902;28;20057;-85
2020/12/17 04:48:25;;;;;;;63.80;35.85;;;6.60;99.90;;;;;;4996781;28;20018;-84
2020/12/17 04:50:51;;;;;;;63.58;34.30;;;6.60;99.90;;;;;;5014518;28;20018;-84
2020/12/17 04:53:18;;;;;;;61.25;33.97;;;6.60;99.90;;;;;;4997167;28;20084;-83
2020/12/17 04:55:48;;;;;;;65.97;34.85;;;6.70;99.90;;;;;;4997378;28;20057;-83
2020/12/17 04:58:19;;;;;;;58.85;32.28;;;6.70;99.90;;;;;;5014409;28;20022;-86
2020/12/17 05:00:54;;;;;;;61.00;31.75;;;6.80;99.90;;;;;;5015074;28;20041;-86
2020/12/17 05:03:54;;;;;;;56.75;31.88;;;6.80;99.90;;;;;;4997884;28;20026;-87
2020/12/17 05:06:24;;;;;;;58.80;32.45;;;6.90;99.90;;;;;;4997453;28;20029;-85
2020/12/17 05:08:58;;;;;;;53.40;29.67;;;6.80;99.90;;;;;;5127115;23;20080;-85
2020/12/17 05:11:24;;;;;;;55.53;30.90;;;6.60;99.90;;;;;;4996832;28;20448;-86
2020/12/17 05:13:54;;;;;;;57.78;30.75;;;6.60;99.90;;;;;;4996699;28;20469;-85
2020/12/17 05:16:20;;;;;;;60.00;29.02;;;6.50;99.90;;;;;;4997060;28;20481;-84
2020/12/17 05:18:46;;;;;;;52.75;28.15;;;6.50;99.90;;;;;;5014219;28;20022;-87
2020/12/17 05:21:15;;;;;;;36.85;22.00;;;6.50;99.90;;;;;;5013729;28;20064;-88
2020/12/17 05:23:49;;;;;;;42.05;23.08;;;6.50;99.90;;;;;;5014340;28;20029;-85
2020/12/17 05:26:15;;;;;;;34.53;19.67;;;6.50;99.90;;;;;;5013749;28;20045;-84
2020/12/17 05:29:13;;;;;;;29.05;19.27;;;6.40;99.90;;;;;;4996142;28;20369;-85
2020/12/17 05:31:39;;;;;;;30.90;18.45;;;6.50;99.90;;;;;;4996187;28;20061;-84
2020/12/17 05:34:49;;;;;;;32.15;17.85;;;6.50;99.90;;;;;;4996703;28;20119;-85
2020/12/17 05:37:14;;;;;;;31.58;16.73;;;6.60;99.90;;;;;;4996788;28;20038;-85
2020/12/17 05:39:43;;;;;;;29.25;18.52;;;6.60;99.90;;;;;;4995991;28;20022;-85
2020/12/17 05:42:13;;;;;;;30.25;17.83;;;6.60;99.90;;;;;;5013100;28;20032;-85
2020/12/17 05:48:16;;;;;;;27.30;15.68;;;6.60;99.90;;;;;;5013405;28;20088;-84
2020/12/17 05:50:50;;;;;;;26.17;16.67;;;6.50;99.90;;;;;;4995675;28;20469;-82
2020/12/17 05:53:18;;;;;;;31.10;16.38;;;6.60;99.90;;;;;;4995093;28;20045;-83
2020/12/17 05:55:44;;;;;;;30.08;17.08;;;6.70;99.90;;;;;;4995158;28;20042;-83
2020/12/17 05:58:11;;;;;;;31.33;17.77;;;6.80;99.90;;;;;;4994564;28;20084;-84
2020/12/17 06:00:37;;;;;;;35.40;19.05;;;6.90;99.90;;;;;;4995235;28;20389;-87
2020/12/17 06:03:03;;;;;;;33.78;18.90;;;6.80;99.90;;;;;;5012748;28;20478;-85
2020/12/17 06:05:31;;;;;;;34.20;19.58;;;7.00;99.90;;;;;;4995282;28;20026;-85
2020/12/17 06:08:00;;;;;;;31.83;17.00;;;7.00;99.90;;;;;;4995025;28;20037;-85
2020/12/17 06:10:27;;;;;;;27.42;15.52;;;6.90;99.90;;;;;;4995312;28;20069;-85
2020/12/17 06:13:02;;;;;;;28.27;16.10;;;6.80;99.90;;;;;;4994831;28;20414;-86
2020/12/17 06:15:30;;;;;;;24.83;14.90;;;6.70;99.90;;;;;;5012916;28;20425;-85
2020/12/17 06:18:02;;;;;;;24.52;15.57;;;6.70;99.90;;;;;;4995141;28;20050;-83
2020/12/17 06:20:30;;;;;;;20.85;13.45;;;6.80;99.90;;;;;;5012768;28;20037;-86
2020/12/17 06:22:58;;;;;;;25.70;14.55;;;6.90;99.90;;;;;;4994948;28;20031;-87
2020/12/17 06:25:30;;;;;;;32.78;16.98;;;6.80;99.90;;;;;;4995360;28;20033;-88
2020/12/17 06:27:57;;;;;;;31.15;18.58;;;6.80;99.90;;;;;;4995675;28;20034;-89
2020/12/17 06:30:28;;;;;;;30.25;13.15;;;7.30;99.90;;;;;;4995707;28;20401;-85
2020/12/17 06:32:59;;;;;;;19.80;12.43;;;7.20;99.90;;;;;;5012268;28;20390;-86
2020/12/17 06:35:40;;;;;;;31.52;18.02;;;7.10;99.90;;;;;;5010819;28;20041;-83
2020/12/17 06:38:06;;;;;;;;;;;7.90;99.90;;;;;;4994724;28;20083;-84
2020/12/17 06:40:32;;;;;;;84.07;43.85;;;8.00;99.90;;;;;;5012427;28;19905;-85
2020/12/17 06:42:58;;;;;;;72.53;40.40;;;7.90;99.90;;;;;;4994519;28;20371;-84
2020/12/17 06:45:30;;;;;;;56.08;29.50;;;7.90;99.90;;;;;;4994222;28;20535;-84
2020/12/17 06:47:56;;;;;;;41.83;24.73;;;7.60;99.90;;;;;;4987218;28;20117;-81
2020/12/17 06:50:30;;;;;;;44.50;24.65;;;7.40;99.90;;;;;;4977212;28;20121;-85
2020/12/17 06:53:08;;;;;;;34.58;20.00;;;7.20;99.90;;;;;;4972850;28;20457;-82
2020/12/17 06:55:48;;;;;;;28.50;16.83;;;7.00;99.90;;;;;;4978836;28;20037;-85
2020/12/17 06:58:23;;;;;;;28.20;16.10;;;6.80;99.90;;;;;;5011609;28;20557;-81
2020/12/17 07:00:52;;;;;;;26.13;14.40;;;6.80;99.90;;;;;;4993619;28;20033;-86
2020/12/17 07:03:47;;;;;;;23.85;14.57;;;6.80;99.90;;;;;;4993984;28;20448;-87
2020/12/17 07:06:18;;;;;;;25.95;15.25;;;6.80;99.90;;;;;;5012805;28;20073;-87
2020/12/17 07:08:49;;;;;;;45.95;25.42;;;6.80;99.90;;;;;;4986941;28;20042;-82
2020/12/17 07:11:54;;;;;;;27.50;16.98;;;7.10;99.90;;;;;;4988667;28;20431;-91
2020/12/17 07:14:26;;;;;;;25.73;14.23;;;7.10;99.90;;;;;;4974392;28;20184;-85
2020/12/17 07:17:03;;;;;;;27.30;15.82;;;6.90;99.90;;;;;;4998146;28;20045;-84
2020/12/17 07:19:42;;;;;;;30.48;15.88;;;6.80;99.90;;;;;;4994030;28;20033;-85
2020/12/17 07:25:52;;;;;;;29.13;16.15;;;6.90;99.90;;;;;;5002027;28;20473;-84
2020/12/17 07:28:26;;;;;;;29.02;15.77;;;7.00;99.90;;;;;;4993625;28;20033;-84
2020/12/17 07:30:55;;;;;;;27.23;15.63;;;6.90;99.90;;;;;;4993742;28;20033;-85
2020/12/17 07:33:36;;;;;;;28.00;15.45;;;6.80;99.90;;;;;;4993855;28;20045;-86
2020/12/17 07:36:05;;;;;;;31.58;15.45;;;7.00;99.90;;;;;;4998823;28;20041;-86
2020/12/17 07:38:31;;;;;;;31.08;16.38;;;6.90;99.90;;;;;;4993878;28;20026;-85
2020/12/17 07:40:57;;;;;;;25.38;14.80;;;7.10;99.90;;;;;;4974487;28;20030;-86
2020/12/17 07:43:37;;;;;;;25.30;14.07;;;7.20;99.90;;;;;;4991397;28;20351;-82
2020/12/17 07:46:04;;;;;;;26.17;15.00;;;7.10;99.90;;;;;;4974730;28;20037;-87
2020/12/17 07:48:46;;;;;;;24.23;14.80;;;6.90;99.90;;;;;;4974294;28;20039;-86
2020/12/17 07:51:14;;;;;;;28.35;15.27;;;7.10;99.90;;;;;;4977056;28;20485;-84
2020/12/17 07:53:49;;;;;;;26.45;15.38;;;7.10;99.90;;;;;;4995378;28;20023;-85
2020/12/17 07:56:15;;;;;;;25.05;15.77;;;7.00;99.90;;;;;;4995220;28;20117;-83
2020/12/17 07:58:42;;;;;;;28.60;16.25;;;6.90;99.90;;;;;;4998930;28;20022;-84
2020/12/17 08:01:10;;;;;;;24.90;15.05;;;6.90;99.90;;;;;;4993997;28;20033;-84
2020/12/17 08:03:48;;;;;;;31.48;16.50;;;6.80;99.90;;;;;;5014736;28;20030;-83
2020/12/17 08:06:19;;;;;;;25.23;15.25;;;6.80;99.90;;;;;;4997146;28;20418;-83
2020/12/17 08:08:46;;;;;;;25.20;14.35;;;6.90;99.90;;;;;;4988010;28;20050;-82
2020/12/17 08:11:12;;;;;;;23.73;15.13;;;6.90;99.90;;;;;;4995203;28;20033;-83
2020/12/17 08:13:38;;;;;;;25.52;15.60;;;6.90;99.90;;;;;;4988290;28;20022;-81
2020/12/17 08:16:05;;;;;;;28.17;14.82;;;7.00;99.90;;;;;;5014114;28;20050;-83
2020/12/17 08:18:35;;;;;;;29.38;15.77;;;7.10;99.90;;;;;;4996510;28;20033;-82
2020/12/17 08:21:05;;;;;;;27.52;15.50;;;7.10;99.90;;;;;;5014421;28;20109;-82
2020/12/17 08:23:36;;;;;;;27.25;14.93;;;7.20;99.90;;;;;;5012771;28;20022;-83
2020/12/17 08:26:04;;;;;;;26.55;16.33;;;7.20;99.90;;;;;;4977144;28;20026;-82
2020/12/17 08:28:35;;;;;;;26.77;16.75;;;7.10;99.90;;;;;;4978571;28;20386;-81
2020/12/17 08:31:03;;;;;;;28.05;16.00;;;7.30;99.90;;;;;;5008637;28;20062;-81
2020/12/17 08:33:29;;;;;;;30.80;16.98;;;7.40;99.90;;;;;;5013679;28;20026;-81
2020/12/17 08:36:10;;;;;;;27.73;17.10;;;7.30;99.90;;;;;;4995290;28;20498;-81
2020/12/17 08:38:36;;;;;;;;;;;7.20;99.90;;;;;;4995300;28;20045;-83
2020/12/17 08:41:05;;;;;;;31.65;17.65;;;7.20;99.90;;;;;;5016837;28;19928;-82
2020/12/17 08:43:46;;;;;;;30.13;16.40;;;7.20;99.90;;;;;;4999351;28;20400;-83
2020/12/17 08:46:17;;;;;;;32.90;18.42;;;7.10;99.90;;;;;;5011094;28;20038;-83
2020/12/17 08:48:44;;;;;;;31.15;17.88;;;7.20;99.90;;;;;;4994541;28;20022;-83
2020/12/17 08:51:12;;;;;;;28.17;15.57;;;7.30;99.90;;;;;;4985294;28;20548;-83
2020/12/17 08:53:43;;;;;;;27.05;15.48;;;7.30;99.90;;;;;;5006210;28;20030;-82
2020/12/17 08:56:14;;;;;;;27.92;16.02;;;7.30;99.90;;;;;;4986641;28;20121;-81
2020/12/17 08:58:49;;;;;;;31.25;17.90;;;7.50;99.90;;;;;;4976769;28;20072;-82
2020/12/17 09:01:19;;;;;;;29.15;16.17;;;7.50;99.90;;;;;;4999819;28;20033;-82
2020/12/17 09:03:48;;;;;;;26.27;16.02;;;7.60;99.90;;;;;;5011841;28;20102;-84
2020/12/17 09:06:15;;;;;;;28.23;16.02;;;7.50;99.90;;;;;;4995297;28;20475;-82
2020/12/17 09:08:41;;;;;;;29.70;17.02;;;7.50;99.90;;;;;;5012337;28;20092;-82
2020/12/17 09:11:30;;;;;;;29.60;16.88;;;7.50;99.90;;;;;;4978724;28;20125;-84
2020/12/17 09:14:02;;;;;;;29.58;15.85;;;7.50;99.90;;;;;;4986700;28;20040;-83
2020/12/17 09:16:29;;;;;;;27.13;16.85;;;7.50;99.90;;;;;;5011192;28;20119;-84
2020/12/17 09:18:56;;;;;;;26.85;15.70;;;7.70;99.90;;;;;;5012244;28;20058;-83
2020/12/17 09:21:22;;;;;;;28.23;15.88;;;7.80;99.90;;;;;;5055817;23;20060;-83
2020/12/17 09:23:58;;;;;;;26.95;16.33;;;7.90;99.90;;;;;;5011875;28;20365;-82
2020/12/17 09:26:25;;;;;;;28.23;16.15;;;8.00;99.90;;;;;;4994686;28;20100;-86
2020/12/17 09:28:57;;;;;;;31.65;16.38;;;7.80;99.90;;;;;;5012957;28;20018;-86
2020/12/17 09:31:26;;;;;;;28.40;16.92;;;7.70;99.90;;;;;;5011652;28;20097;-81
2020/12/17 09:34:02;;;;;;;33.28;16.65;;;7.90;99.90;;;;;;4995087;28;20026;-82
2020/12/17 09:36:28;;;;;;;27.80;17.73;;;8.00;99.90;;;;;;5013330;28;20442;-82
2020/12/17 09:39:02;;;;;;;29.77;17.15;;;8.10;99.90;;;;;;5010250;28;20084;-83
2020/12/17 09:41:28;;;;;;;27.15;16.20;;;8.20;99.90;;;;;;4994925;28;20041;-83
2020/12/17 09:43:54;;;;;;;27.55;15.98;;;8.30;99.90;;;;;;5012786;28;20405;-83
2020/12/17 09:46:20;;;;;;;27.90;16.75;;;8.30;99.90;;;;;;5012597;28;20053;-85
2020/12/17 09:48:46;;;;;;;28.30;16.55;;;8.30;99.90;;;;;;5012903;28;20026;-82
2020/12/17 09:51:12;;;;;;;26.60;15.32;;;8.40;99.90;;;;;;4988135;28;20030;-86
2020/12/17 09:53:40;;;;;;;31.20;16.80;;;8.50;99.90;;;;;;4986887;28;20359;-83
2020/12/17 09:56:11;;;;;;;29.45;17.45;;;8.50;99.90;;;;;;4968210;28;20057;-83
2020/12/17 09:58:41;;;;;;;29.52;17.27;;;8.40;99.90;;;;;;4975840;28;20019;-84
2020/12/17 10:01:07;;;;;;;28.50;15.80;;;8.50;99.90;;;;;;4959245;28;20033;-85
2020/12/17 10:03:33;;;;;;;33.35;17.15;;;8.50;99.90;;;;;;4959117;28;20031;-86
2020/12/17 10:05:58;;;;;;;26.58;16.27;;;8.60;99.90;;;;;;4973328;28;20027;-84
2020/12/17 10:08:24;;;;;;;32.10;17.25;;;8.50;99.90;;;;;;4980046;28;20379;-83
2020/12/17 10:10:50;;;;;;;28.40;16.10;;;8.50;99.90;;;;;;4972348;28;20061;-86
2020/12/17 10:13:16;;;;;;;27.65;14.63;;;8.60;99.90;;;;;;4967646;28;20033;-82
2020/12/17 10:15:42;;;;;;;27.75;16.13;;;8.70;99.90;;;;;;4971539;28;20062;-81
2020/12/17 10:18:10;;;;;;;25.70;15.07;;;9.00;99.90;;;;;;4985425;28;20034;-84
2020/12/17 10:20:36;;;;;;;29.98;16.02;;;9.10;99.90;;;;;;4976126;28;20059;-84
2020/12/17 10:23:02;;;;;;;26.35;16.20;;;9.30;99.90;;;;;;4978418;28;20031;-83
2020/12/17 10:25:28;;;;;;;29.30;16.05;;;9.00;99.90;;;;;;4974369;28;20019;-83
2020/12/17 10:27:58;;;;;;;30.55;16.17;;;9.10;99.90;;;;;;4975493;28;20065;-86
2020/12/17 10:30:25;;;;;;;30.40;17.15;;;9.10;99.90;;;;;;4992839;28;20085;-87
2020/12/17 10:32:51;;;;;;;24.98;16.15;;;9.20;99.90;;;;;;4975441;28;20041;-88
2020/12/17 10:35:17;;;;;;;26.92;15.70;;;9.30;99.90;;;;;;4969042;28;20027;-86
2020/12/17 10:37:47;;;;;;;29.65;16.33;;;9.40;99.90;;;;;;4963518;28;20034;-84
2020/12/17 10:40:13;;;;;;;27.57;15.27;;;9.30;99.90;;;;;;4982781;28;20022;-85
2020/12/17 10:42:42;;;;;;;25.08;15.40;;;9.30;99.90;;;;;;4967212;28;20605;-85
2020/12/17 10:45:09;;;;;;;27.10;15.13;;;9.30;99.90;;;;;;4984698;28;20022;-85
2020/12/17 10:47:36;;;;;;;30.30;17.17;;;9.40;99.90;;;;;;4963596;28;20275;-85
2020/12/17 10:50:07;;;;;;;25.08;15.88;;;9.50;99.90;;;;;;4981109;28;20026;-87
2020/12/17 10:52:33;;;;;;;24.80;15.93;;;9.50;99.90;;;;;;4968061;28;20030;-85
2020/12/17 10:55:08;;;;;;;25.50;15.48;;;9.60;99.90;;;;;;4966562;28;20026;-85
2020/12/17 11:00:24;;;;;;;24.23;15.32;;;9.60;99.90;;;;;;5023143;23;20058;-85
2020/12/17 11:02:50;;;;;;;;;;;9.70;99.90;;;;;;4987322;28;20030;-82
2020/12/17 11:05:31;;;;;;;31.02;18.63;;;9.80;99.90;;;;;;4991045;28;19912;-86
2020/12/17 11:07:56;;;;;;;;;;;9.70;99.90;;;;;;5010125;28;20041;-84
2020/12/17 11:10:25;;;;;;;42.15;23.27;;;9.60;99.90;;;;;;4988534;28;19921;-86
2020/12/17 11:12:52;;;;;;;37.63;23.13;;;9.40;99.90;;;;;;4989925;28;20022;-84
2020/12/17 11:15:17;;;;;;;45.30;24.13;;;9.40;99.90;;;;;;5005853;28;20040;-86
2020/12/17 11:17:43;;;;;;;39.55;23.80;;;9.20;99.90;;;;;;5007511;28;20025;-85
2020/12/17 11:20:09;;;;;;;46.03;23.88;;;9.30;99.90;;;;;;5010471;28;20042;-84
2020/12/17 11:22:35;;;;;;;43.67;24.45;;;9.30;99.90;;;;;;5011176;28;20026;-83
2020/12/17 11:25:00;;;;;;;44.20;24.13;;;9.30;99.90;;;;;;5013878;28;20045;-85
2020/12/17 11:27:26;;;;;;;42.00;24.45;;;9.30;99.90;;;;;;4997518;28;20022;-85
2020/12/17 11:29:52;;;;;;;45.75;24.27;;;9.30;99.90;;;;;;5015105;28;20492;-84
2020/12/17 11:32:21;;;;;;;39.90;24.50;;;9.40;99.90;;;;;;4997447;28;20026;-82
2020/12/17 11:34:46;;;;;;;42.28;24.33;;;9.40;99.90;;;;;;4997256;28;20109;-83
2020/12/17 11:37:13;;;;;;;45.85;24.08;;;9.40;99.90;;;;;;4997231;28;20129;-84
2020/12/17 11:39:40;;;;;;;40.45;24.45;;;9.30;99.90;;;;;;5015189;28;20022;-83
2020/12/17 11:42:06;;;;;;;36.20;22.83;;;9.40;99.90;;;;;;4997618;28;20069;-88
2020/12/17 11:44:33;;;;;;;41.45;25.60;;;9.40;99.90;;;;;;4998082;28;20033;-84
2020/12/17 11:47:03;;;;;;;37.58;23.30;;;9.50;99.90;;;;;;4997820;28;20025;-89
2020/12/17 11:49:29;;;;;;;43.05;25.05;;;9.50;99.90;;;;;;4997453;28;20025;-85
2020/12/17 11:51:57;;;;;;;47.75;25.27;;;9.50;99.90;;;;;;4980547;28;20038;-84
2020/12/17 11:54:23;;;;;;;42.72;25.85;;;9.50;99.90;;;;;;4977982;28;20034;-88
2020/12/17 11:56:53;;;;;;;46.10;25.58;;;9.50;99.90;;;;;;4974825;28;20062;-85
2020/12/17 11:59:19;;;;;;;40.28;24.65;;;9.60;99.90;;;;;;4975703;28;20055;-83
2020/12/17 12:01:46;;;;;;;45.22;26.80;;;9.60;99.90;;;;;;4983533;28;20180;-84
2020/12/17 12:04:25;;;;;;;45.72;25.17;;;9.60;99.90;;;;;;4995288;28;20019;-83
2020/12/17 12:06:51;;;;;;;42.45;25.15;;;9.70;99.90;;;;;;4995141;28;20084;-84
2020/12/17 12:09:37;;;;;;;51.25;27.02;;;9.60;99.90;;;;;;4977599;28;20421;-85
2020/12/17 12:12:06;;;;;;;45.42;26.70;;;9.70;99.90;;;;;;4994525;28;20022;-87
2020/12/17 12:14:34;;;;;;;40.38;24.17;;;9.70;99.90;;;;;;4977614;28;20129;-81
2020/12/17 12:17:37;;;;;;;35.50;21.63;;;10.10;99.90;;;;;;4993988;28;20034;-82
2020/12/17 12:20:03;;;;;;;42.42;25.02;;;10.80;99.90;;;;;;4994224;28;20386;-82
2020/12/17 12:22:42;;;;;;;43.20;26.70;;;10.60;99.90;;;;;;4994288;28;20037;-83
2020/12/17 12:25:58;;;;;;;48.60;27.80;;;10.20;99.90;;;;;;4994608;28;20029;-83
2020/12/17 12:28:57;;;;;;;41.67;25.20;;;9.80;99.90;;;;;;4970517;28;20065;-83
2020/12/17 12:31:23;;;;;;;43.50;25.20;;;9.80;99.90;;;;;;4955966;28;20378;-81
2020/12/17 12:33:48;;;;;;;46.30;25.98;;;9.70;99.90;;;;;;4971851;28;20532;-84
2020/12/17 12:36:14;;;;;;;45.40;27.02;;;9.80;99.90;;;;;;4955544;28;20070;-82
2020/12/17 12:38:40;;;;;;;43.60;25.30;;;9.80;99.90;;;;;;4972272;28;20050;-82
2020/12/17 12:41:46;;;;;;;49.08;24.73;;;9.90;99.90;;;;;;4955979;28;20031;-84
2020/12/17 12:44:27;;;;;;;38.72;23.70;;;9.80;99.90;;;;;;4956007;28;20034;-83
2020/12/17 12:50:18;;;;;;;32.88;20.85;;;9.90;99.90;;;;;;4952257;28;20059;-82
2020/12/17 12:52:44;;;;;;;41.78;21.70;;;9.80;99.90;;;;;;4955621;28;20134;-81
2020/12/17 12:55:10;;;;;;;31.20;19.85;;;9.90;99.90;;;;;;4971888;28;20148;-83
2020/12/17 12:57:36;;;;;;;38.38;20.88;;;9.90;99.90;;;;;;4971943;28;20056;-83
2020/12/17 13:03:24;;;;;;;39.55;21.27;;;9.90;99.90;;;;;;4974555;28;20535;-82
2020/12/17 13:05:56;;;;;;;43.90;21.88;;;9.90;99.90;;;;;;4974616;28;20022;-83
2020/12/17 13:08:27;;;;;;;35.03;20.33;;;9.90;99.90;;;;;;4960346;28;20367;-84
2020/12/17 13:10:59;;;;;;;32.92;19.75;;;9.90;99.90;;;;;;4989877;28;20029;-84